Time;durP1;ratioP1;P1;durP2;ratioP2;P2;SDS_P1;SDS_P2;PMS_P1;PMS_P2;Temp;Humidity;BMP_temperature;BMP_pressure;BME280_temperature;BME280_humidity;BME280_pressure;Samples;Min_cycle;Max_cycle;Signal;HPM_P1;HPM_P2
2021/12/18 00:01:28;;;;;;;8.90;4.50;;;7.40;99.90;;;;;;5013712;28;20121;-61
2021/12/18 00:03:54;;;;;;;9.50;3.28;;;7.40;99.90;;;;;;4973255;28;20042;-60
2021/12/18 00:06:21;;;;;;;8.00;2.95;;;7.40;99.90;;;;;;5016531;28;20049;-60
2021/12/18 00:08:47;;;;;;;10.32;2.35;;;7.40;99.90;;;;;;4983588;28;20057;-61
2021/12/18 00:11:13;;;;;;;23.40;3.92;;;7.30;99.90;;;;;;5003627;28;20049;-61
2021/12/18 00:13:39;;;;;;;10.68;2.75;;;7.30;99.90;;;;;;5014327;28;20032;-60
2021/12/18 00:16:06;;;;;;;10.18;3.50;;;7.30;99.90;;;;;;4998567;28;20053;-60
2021/12/18 00:18:34;;;;;;;18.17;4.07;;;7.30;99.90;;;;;;4996495;28;20496;-61
2021/12/18 00:21:00;;;;;;;7.20;2.58;;;7.30;99.90;;;;;;4999754;28;20033;-61
2021/12/18 00:23:26;;;;;;;9.20;2.38;;;7.30;99.90;;;;;;5016618;28;20389;-62
2021/12/18 00:25:52;;;;;;;7.32;1.83;;;7.30;99.90;;;;;;4995493;28;20041;-61
2021/12/18 00:28:18;;;;;;;7.72;2.00;;;7.30;99.90;;;;;;4999757;28;20042;-61
2021/12/18 00:30:44;;;;;;;11.00;2.35;;;7.30;99.90;;;;;;4999014;28;20037;-61
2021/12/18 00:33:10;;;;;;;8.52;2.30;;;7.30;99.90;;;;;;5013083;28;20052;-62
2021/12/18 00:35:36;;;;;;;10.50;2.45;;;7.30;99.90;;;;;;4993090;28;20046;-60
2021/12/18 00:38:04;;;;;;;21.65;5.97;;;7.20;99.90;;;;;;5017300;28;20029;-60
2021/12/18 00:40:43;;;;;;;31.35;6.57;;;7.30;99.90;;;;;;4996007;28;20107;-61
2021/12/18 00:43:24;;;;;;;19.45;4.75;;;7.30;99.90;;;;;;4994990;28;20052;-61
2021/12/18 00:45:51;;;;;;;15.38;3.10;;;7.30;99.90;;;;;;4993423;28;20955;-60
2021/12/18 00:48:17;;;;;;;8.60;2.30;;;7.20;99.90;;;;;;5007733;28;20127;-60
2021/12/18 00:50:43;;;;;;;5.45;0.98;;;7.20;99.90;;;;;;4998725;28;20037;-60
2021/12/18 00:53:08;;;;;;;12.95;1.77;;;7.10;99.90;;;;;;4998103;28;20511;-61
2021/12/18 00:55:36;;;;;;;10.43;2.33;;;7.10;99.90;;;;;;5015388;28;20049;-61
2021/12/18 00:58:03;;;;;;;12.45;2.13;;;7.10;99.90;;;;;;4985376;28;20045;-61
2021/12/18 01:00:29;;;;;;;10.45;2.17;;;7.10;99.90;;;;;;5000793;28;20148;-61
2021/12/18 01:02:59;;;;;;;8.48;2.03;;;7.20;99.90;;;;;;4994715;28;20115;-61
2021/12/18 01:05:26;;;;;;;10.63;2.42;;;7.20;99.90;;;;;;4999098;28;20495;-61
2021/12/18 01:07:54;;;;;;;8.65;2.30;;;7.20;99.90;;;;;;5027687;28;20469;-62
2021/12/18 01:12:49;;;;;;;9.15;2.50;;;7.20;99.90;;;;;;4996293;28;20427;-61
2021/12/18 01:15:38;;;;;;;17.77;3.05;;;7.20;99.90;;;;;;5030626;22;20472;-81
2021/12/18 01:23:28;;;;;;;26.20;3.83;;;7.20;99.90;;;;;;5032260;28;20048;-54
2021/12/18 01:25:55;;;;;;;14.95;3.03;;;7.20;99.90;;;;;;5006886;28;20053;-56
2021/12/18 01:28:21;;;;;;;8.23;2.50;;;7.10;99.90;;;;;;5010493;28;20043;-55
2021/12/18 01:30:47;;;;;;;13.27;2.45;;;7.10;99.90;;;;;;4999079;28;20045;-56
2021/12/18 01:33:13;;;;;;;9.32;2.08;;;7.10;99.90;;;;;;5016799;28;20037;-56
2021/12/18 01:35:38;;;;;;;9.35;1.92;;;7.10;99.90;;;;;;5005606;28;20051;-58
2021/12/18 01:38:04;;;;;;;15.00;2.38;;;7.10;99.90;;;;;;4999629;28;20405;-56
2021/12/18 01:40:31;;;;;;;26.38;2.90;;;7.10;99.90;;;;;;5000385;28;20029;-56
2021/12/18 01:44:19;;;;;;;6.82;2.13;;;7.00;99.90;;;;;;5002812;28;20091;-55
2021/12/18 01:53:38;;;;;;;23.27;2.80;;;6.90;99.90;;;;;;5018993;28;20045;-55
2021/12/18 01:56:05;;;;;;;29.10;3.30;;;7.00;99.90;;;;;;4982422;28;20061;-56
2021/12/18 01:58:31;;;;;;;19.00;2.60;;;7.00;99.90;;;;;;5019343;28;20117;-56
2021/12/18 02:00:59;;;;;;;35.25;3.30;;;7.00;99.90;;;;;;4995899;28;20065;-55
2021/12/18 02:03:25;;;;;;;41.35;3.63;;;7.00;99.90;;;;;;4994513;28;20049;-53
2021/12/18 02:05:52;;;;;;;34.20;4.35;;;7.00;99.90;;;;;;5016370;28;20067;-56
2021/12/18 02:08:23;;;;;;;15.52;3.40;;;7.00;99.90;;;;;;4987216;28;20034;-55
2021/12/18 02:10:55;;;;;;;54.40;4.93;;;7.00;99.90;;;;;;4996703;28;20044;-59
2021/12/18 02:13:25;;;;;;;17.25;3.45;;;7.00;99.90;;;;;;5003472;28;20030;-54
2021/12/18 02:21:24;;;;;;;9.13;2.60;;;6.90;99.90;;;;;;4999139;28;20040;-54
2021/12/18 02:23:50;;;;;;;11.70;2.97;;;7.00;99.90;;;;;;4996155;28;20048;-56
2021/12/18 02:26:16;;;;;;;18.42;3.38;;;7.00;99.90;;;;;;4990365;28;20049;-56
2021/12/18 02:28:46;;;;;;;17.48;3.55;;;7.00;99.90;;;;;;5015098;28;20041;-55
2021/12/18 02:31:12;;;;;;;23.90;4.88;;;7.00;99.90;;;;;;5016514;28;20053;-54
2021/12/18 02:33:37;;;;;;;19.85;3.65;;;7.00;99.90;;;;;;5016653;28;20045;-55
2021/12/18 02:36:07;;;;;;;8.68;3.38;;;7.00;99.90;;;;;;4986571;28;20046;-56
2021/12/18 02:38:58;;;;;;;7.82;3.05;;;7.10;99.90;;;;;;5007806;28;20073;-58
2021/12/18 02:41:41;;;;;;;14.52;3.35;;;7.10;99.90;;;;;;5005572;28;20548;-55
2021/12/18 02:44:10;;;;;;;11.63;2.92;;;7.10;99.90;;;;;;4985820;28;20045;-54
2021/12/18 02:46:37;;;;;;;17.30;3.22;;;7.10;99.90;;;;;;5005079;28;20581;-58
2021/12/18 02:49:08;;;;;;;12.77;2.90;;;7.10;99.90;;;;;;5001993;28;20049;-54
2021/12/18 02:51:34;;;;;;;11.15;2.88;;;7.10;99.90;;;;;;4998970;28;20450;-55
2021/12/18 02:53:59;;;;;;;13.27;3.03;;;7.10;99.90;;;;;;5000267;28;20037;-56
2021/12/18 02:56:25;;;;;;;9.45;2.47;;;7.10;99.90;;;;;;4966602;28;20048;-58
2021/12/18 02:58:58;;;;;;;23.27;3.78;;;7.10;99.90;;;;;;5017479;28;20048;-55
2021/12/18 03:01:26;;;;;;;19.75;3.95;;;7.20;99.90;;;;;;5002276;28;20037;-58
2021/12/18 03:03:55;;;;;;;11.32;2.47;;;7.10;99.90;;;;;;4993649;28;20136;-56
2021/12/18 03:09:17;;;;;;;23.38;5.28;;;7.20;99.90;;;;;;4978864;28;20261;-58
2021/12/18 03:25:26;;;;;;;21.95;5.82;;;7.30;99.90;;;;;;5000380;28;20033;-56
2021/12/18 03:27:53;;;;;;;22.92;6.25;;;7.30;99.90;;;;;;4987757;28;20037;-54
2021/12/18 03:30:20;;;;;;;14.10;4.40;;;7.30;99.90;;;;;;5010383;28;20132;-58
2021/12/18 03:32:47;;;;;;;14.27;4.25;;;7.40;99.90;;;;;;4976388;28;20042;-59
2021/12/18 03:35:14;;;;;;;13.70;4.10;;;7.40;99.90;;;;;;4977363;28;20128;-56
2021/12/18 03:37:40;;;;;;;14.23;4.45;;;7.40;99.90;;;;;;4987332;28;20124;-57
2021/12/18 03:40:10;;;;;;;20.63;4.80;;;7.40;99.90;;;;;;5000499;28;20034;-59
2021/12/18 03:42:36;;;;;;;21.33;5.20;;;7.40;99.90;;;;;;5002134;28;20051;-57
2021/12/18 03:45:04;;;;;;;14.10;4.93;;;7.50;99.90;;;;;;4999880;28;20469;-55
2021/12/18 03:47:30;;;;;;;17.45;5.35;;;7.50;99.90;;;;;;4994624;28;20037;-53
2021/12/18 03:49:55;;;;;;;12.13;4.15;;;7.50;99.90;;;;;;4997290;28;20514;-59
2021/12/18 03:52:22;;;;;;;9.23;3.58;;;7.50;99.90;;;;;;5000370;28;20791;-55
2021/12/18 03:54:47;;;;;;;6.03;2.45;;;7.50;99.90;;;;;;4994699;28;20493;-54
2021/12/18 03:57:13;;;;;;;6.22;2.25;;;7.50;99.90;;;;;;4996711;28;20045;-54
2021/12/18 03:59:39;;;;;;;5.20;2.13;;;7.50;99.90;;;;;;4983379;28;20390;-52
2021/12/18 04:02:04;;;;;;;7.55;2.45;;;7.50;99.90;;;;;;4990386;28;20041;-53
2021/12/18 04:04:30;;;;;;;5.50;1.80;;;7.50;99.90;;;;;;4984423;28;20059;-55
2021/12/18 04:06:56;;;;;;;8.50;2.47;;;7.40;99.90;;;;;;4996160;28;20135;-54
2021/12/18 04:09:22;;;;;;;6.43;2.45;;;7.40;99.90;;;;;;5001161;28;20041;-52
2021/12/18 04:11:48;;;;;;;6.65;2.90;;;7.40;99.90;;;;;;5004694;28;20044;-52
2021/12/18 04:14:17;;;;;;;10.82;3.45;;;7.40;99.90;;;;;;4985854;28;20624;-52
2021/12/18 04:16:44;;;;;;;8.80;3.47;;;7.40;99.90;;;;;;4976520;28;20056;-51
2021/12/18 04:19:10;;;;;;;11.88;3.75;;;7.40;99.90;;;;;;4983862;28;20044;-54
2021/12/18 04:21:36;;;;;;;7.82;3.40;;;7.40;99.90;;;;;;5000482;28;20049;-54
2021/12/18 04:24:03;;;;;;;9.23;4.07;;;7.50;99.90;;;;;;4994785;28;20047;-51
2021/12/18 04:26:30;;;;;;;10.15;4.43;;;7.40;99.90;;;;;;5001544;28;20045;-55
2021/12/18 04:28:57;;;;;;;8.27;3.67;;;7.50;99.90;;;;;;5004065;28;20048;-56
2021/12/18 04:31:22;;;;;;;10.40;3.80;;;7.50;99.90;;;;;;4998313;28;20515;-51
2021/12/18 04:33:48;;;;;;;9.27;4.00;;;7.50;99.90;;;;;;4988568;28;20041;-55
2021/12/18 04:36:14;;;;;;;10.68;3.80;;;7.50;99.90;;;;;;5015154;28;20046;-51
2021/12/18 04:38:40;;;;;;;10.82;3.90;;;7.50;99.90;;;;;;4979073;28;20133;-53
2021/12/18 04:41:06;;;;;;;11.50;4.68;;;7.50;99.90;;;;;;4998452;28;20034;-54
2021/12/18 04:43:32;;;;;;;14.15;4.95;;;7.50;99.90;;;;;;5019774;28;20481;-55
2021/12/18 04:45:58;;;;;;;12.90;4.90;;;7.50;99.90;;;;;;4979265;28;20491;-54
2021/12/18 04:48:23;;;;;;;13.50;4.60;;;7.60;99.90;;;;;;5015034;28;20041;-51
2021/12/18 04:50:49;;;;;;;16.35;5.05;;;7.60;99.90;;;;;;5001616;28;20049;-52
2021/12/18 04:53:15;;;;;;;18.77;6.30;;;7.60;99.90;;;;;;4996826;28;20381;-53
2021/12/18 04:55:41;;;;;;;12.38;4.38;;;7.60;99.90;;;;;;5000611;28;20045;-52
2021/12/18 04:58:06;;;;;;;18.42;6.28;;;7.60;99.90;;;;;;5010192;28;20075;-54
2021/12/18 05:00:40;;;;;;;20.63;6.82;;;7.60;99.90;;;;;;4982433;28;20080;-54
2021/12/18 05:03:10;;;;;;;20.02;6.50;;;7.60;99.90;;;;;;5000291;28;20037;-51
2021/12/18 05:05:36;;;;;;;25.92;7.00;;;7.60;99.90;;;;;;4997845;28;20128;-52
2021/12/18 05:08:03;;;;;;;20.25;5.25;;;7.60;99.90;;;;;;4970163;28;20414;-54
2021/12/18 05:10:30;;;;;;;17.00;5.20;;;7.60;99.90;;;;;;4978727;28;20049;-56
2021/12/18 05:12:55;;;;;;;13.43;4.43;;;7.60;99.90;;;;;;5002198;28;20514;-54
2021/12/18 05:15:21;;;;;;;13.00;4.20;;;7.70;99.90;;;;;;4981757;28;20048;-54
2021/12/18 05:17:47;;;;;;;18.10;4.50;;;7.60;99.90;;;;;;5003295;28;20041;-55
2021/12/18 05:20:13;;;;;;;18.52;6.72;;;7.60;99.90;;;;;;4979384;28;20049;-54
2021/12/18 05:22:38;;;;;;;14.20;4.63;;;7.60;99.90;;;;;;4989767;28;20037;-56
2021/12/18 05:25:06;;;;;;;14.93;4.95;;;7.70;99.90;;;;;;4994472;28;20052;-53
2021/12/18 05:27:32;;;;;;;12.70;4.82;;;7.80;99.90;;;;;;5000925;28;20049;-52
2021/12/18 05:29:58;;;;;;;10.25;4.25;;;7.60;99.90;;;;;;4973139;28;20571;-51
2021/12/18 05:32:23;;;;;;;13.50;3.70;;;7.70;99.90;;;;;;4981167;28;20042;-53
2021/12/18 05:34:49;;;;;;;10.85;3.92;;;7.70;99.90;;;;;;5006988;28;20042;-56
2021/12/18 05:37:32;;;;;;;12.75;4.22;;;7.70;99.90;;;;;;4996160;28;20042;-54
2021/12/18 05:39:59;;;;;;;14.75;4.57;;;7.70;99.90;;;;;;4996672;28;20045;-53
2021/12/18 05:42:24;;;;;;;20.02;5.15;;;7.70;99.90;;;;;;4997099;28;20037;-58
2021/12/18 05:44:50;;;;;;;14.40;5.20;;;7.70;99.90;;;;;;4977468;28;20052;-55
2021/12/18 05:47:16;;;;;;;19.05;6.25;;;7.60;99.90;;;;;;4993157;28;20056;-55
2021/12/18 05:49:42;;;;;;;14.57;5.07;;;7.70;99.90;;;;;;4981696;28;20041;-53
2021/12/18 05:52:08;;;;;;;18.70;6.32;;;7.70;99.90;;;;;;4998208;28;20419;-56
2021/12/18 05:54:36;;;;;;;20.65;6.85;;;7.70;99.90;;;;;;4997199;28;21036;-53
2021/12/18 05:57:06;;;;;;;29.63;7.63;;;7.70;99.90;;;;;;4986041;28;20040;-54
2021/12/18 05:59:32;;;;;;;17.50;6.93;;;7.60;99.90;;;;;;4998836;28;20086;-57
2021/12/18 06:01:58;;;;;;;17.88;5.97;;;7.60;99.90;;;;;;4986346;28;20034;-56
2021/12/18 06:04:24;;;;;;;20.77;5.72;;;7.70;99.90;;;;;;4976235;28;21571;-54
2021/12/18 06:06:49;;;;;;;21.85;6.15;;;7.70;99.90;;;;;;4977727;28;20132;-57
2021/12/18 06:09:16;;;;;;;19.63;6.05;;;7.70;99.90;;;;;;4999495;28;20048;-56
2021/12/18 06:11:42;;;;;;;21.60;5.78;;;7.70;99.90;;;;;;4998985;28;20050;-56
2021/12/18 06:14:09;;;;;;;16.65;5.05;;;7.70;99.90;;;;;;5003248;28;20370;-56
2021/12/18 06:16:35;;;;;;;26.73;6.55;;;7.70;99.90;;;;;;4984688;28;20045;-54
2021/12/18 06:19:01;;;;;;;29.70;7.03;;;7.70;99.90;;;;;;5019444;28;20431;-57
2021/12/18 06:21:28;;;;;;;19.70;4.97;;;7.70;99.90;;;;;;4999258;28;20812;-55
2021/12/18 06:23:55;;;;;;;23.13;5.75;;;7.70;99.90;;;;;;4992202;28;20033;-57
2021/12/18 06:26:22;;;;;;;25.77;7.20;;;7.70;99.90;;;;;;5004188;28;20132;-54
2021/12/18 06:28:48;;;;;;;18.35;6.25;;;7.70;99.90;;;;;;4984416;28;20060;-55
2021/12/18 06:31:14;;;;;;;26.13;7.05;;;7.70;99.90;;;;;;4998657;28;20069;-57
2021/12/18 06:33:40;;;;;;;29.67;8.00;;;7.70;99.90;;;;;;4996958;28;20037;-58
2021/12/18 06:36:06;;;;;;;22.90;6.97;;;7.80;99.90;;;;;;5003703;28;20567;-56
2021/12/18 06:38:31;;;;;;;22.75;6.80;;;7.80;99.90;;;;;;4993736;28;21201;-55
2021/12/18 06:40:57;;;;;;;22.65;5.97;;;7.80;99.90;;;;;;4998022;28;20484;-57
2021/12/18 06:43:23;;;;;;;25.05;6.53;;;7.80;99.90;;;;;;4997869;28;20029;-57
2021/12/18 06:45:49;;;;;;;25.55;7.65;;;7.80;99.90;;;;;;4996290;28;20176;-58
2021/12/18 06:48:14;;;;;;;26.33;6.90;;;7.80;99.90;;;;;;4980116;28;20033;-53
2021/12/18 06:50:41;;;;;;;18.23;6.30;;;7.80;99.90;;;;;;4997642;28;20053;-57
2021/12/18 06:53:07;;;;;;;26.02;6.72;;;7.90;99.90;;;;;;4997231;28;20528;-54
2021/12/18 06:55:33;;;;;;;27.40;6.95;;;7.80;99.90;;;;;;4997001;28;20044;-58
2021/12/18 06:57:59;;;;;;;30.23;6.90;;;7.80;99.90;;;;;;4980130;28;20056;-55
2021/12/18 07:00:27;;;;;;;26.38;7.53;;;7.80;99.90;;;;;;4994010;28;20045;-57
2021/12/18 07:02:53;;;;;;;34.55;7.45;;;7.80;99.90;;;;;;4991539;28;20073;-58
2021/12/18 07:05:19;;;;;;;24.20;6.80;;;7.70;99.90;;;;;;4977527;28;20041;-55
2021/12/18 07:07:46;;;;;;;31.00;7.32;;;7.70;99.90;;;;;;4999138;28;20129;-57
2021/12/18 07:10:13;;;;;;;21.20;6.90;;;7.80;99.90;;;;;;4999121;28;20091;-56
2021/12/18 07:12:39;;;;;;;25.95;7.10;;;7.80;99.90;;;;;;4999027;28;20137;-58
2021/12/18 07:15:07;;;;;;;26.42;7.30;;;7.80;99.90;;;;;;4979975;28;20046;-57
2021/12/18 07:17:32;;;;;;;19.90;6.57;;;7.80;99.90;;;;;;5001876;28;20456;-57
2021/12/18 07:19:58;;;;;;;32.45;7.43;;;7.90;99.90;;;;;;4991370;28;20571;-57
2021/12/18 07:22:24;;;;;;;19.70;7.18;;;7.90;99.90;;;;;;5018627;23;20041;-62
2021/12/18 07:24:50;;;;;;;19.17;6.75;;;7.90;99.90;;;;;;5010273;28;20052;-61
2021/12/18 07:27:16;;;;;;;18.73;6.40;;;7.90;99.90;;;;;;5010241;28;20041;-61
2021/12/18 07:29:41;;;;;;;27.08;8.48;;;7.90;99.90;;;;;;5023895;28;20037;-63
2021/12/18 07:32:07;;;;;;;17.85;6.82;;;7.90;99.90;;;;;;4995273;28;20049;-63
2021/12/18 07:34:35;;;;;;;18.90;7.85;;;8.00;99.90;;;;;;4994033;28;20140;-63
2021/12/18 07:37:01;;;;;;;22.17;8.02;;;8.00;99.90;;;;;;5030035;28;20034;-62
2021/12/18 07:39:27;;;;;;;28.42;8.90;;;8.00;99.90;;;;;;4997551;28;20037;-62
2021/12/18 07:41:52;;;;;;;17.52;6.93;;;8.00;99.90;;;;;;5013209;28;20041;-63
2021/12/18 07:44:18;;;;;;;19.52;7.00;;;8.00;99.90;;;;;;5012210;28;20095;-63
2021/12/18 07:46:44;;;;;;;17.35;6.53;;;8.00;99.90;;;;;;5009183;28;20045;-62
2021/12/18 07:49:09;;;;;;;14.43;5.28;;;8.10;99.90;;;;;;5015530;28;20029;-62
2021/12/18 07:51:36;;;;;;;17.80;6.72;;;8.10;99.90;;;;;;5010827;28;20041;-62
2021/12/18 07:54:04;;;;;;;16.15;6.03;;;8.10;99.90;;;;;;5010876;28;20038;-61
2021/12/18 07:56:30;;;;;;;15.70;6.97;;;8.10;99.90;;;;;;5015270;28;20052;-62
2021/12/18 07:58:56;;;;;;;12.25;6.28;;;8.10;99.90;;;;;;4989000;28;20121;-61
2021/12/18 08:01:21;;;;;;;19.35;6.82;;;8.10;99.90;;;;;;5026996;28;20121;-61
2021/12/18 08:03:48;;;;;;;16.83;6.03;;;8.20;99.90;;;;;;5024979;28;20120;-62
2021/12/18 08:06:15;;;;;;;12.68;5.70;;;8.20;99.90;;;;;;5026526;28;20045;-61
2021/12/18 08:08:41;;;;;;;14.00;5.35;;;8.20;99.90;;;;;;5011298;28;20132;-61
2021/12/18 08:11:07;;;;;;;13.27;5.80;;;8.20;99.90;;;;;;5006796;28;20064;-62
2021/12/18 08:13:33;;;;;;;17.77;6.57;;;8.20;99.90;;;;;;5027084;28;20452;-61
2021/12/18 08:15:59;;;;;;;13.85;5.45;;;8.20;99.90;;;;;;5024181;28;20468;-62
2021/12/18 08:18:24;;;;;;;16.48;7.07;;;8.30;99.90;;;;;;5030416;28;20037;-61
2021/12/18 08:20:51;;;;;;;15.00;5.50;;;8.30;99.90;;;;;;5029765;28;20048;-59
2021/12/18 08:23:17;;;;;;;17.85;6.38;;;8.30;99.90;;;;;;4990400;28;20562;-59
2021/12/18 08:25:43;;;;;;;13.85;5.90;;;8.30;99.90;;;;;;5019923;28;20034;-60
2021/12/18 08:28:09;;;;;;;13.88;5.95;;;8.30;99.90;;;;;;5000403;28;20103;-61
2021/12/18 08:30:37;;;;;;;17.67;6.28;;;8.40;99.90;;;;;;4985979;28;20080;-61
2021/12/18 08:33:04;;;;;;;16.75;6.32;;;8.40;99.90;;;;;;4985632;28;20029;-59
2021/12/18 08:35:31;;;;;;;12.32;5.15;;;8.40;99.90;;;;;;4999835;28;20074;-61
2021/12/18 08:37:58;;;;;;;15.38;6.47;;;8.40;99.90;;;;;;5015896;28;20045;-61
2021/12/18 08:40:25;;;;;;;16.67;6.57;;;8.40;99.90;;;;;;5017146;28;20037;-60
2021/12/18 08:42:52;;;;;;;16.75;6.13;;;8.40;99.90;;;;;;4999158;28;20115;-60
2021/12/18 08:45:19;;;;;;;13.40;6.80;;;8.40;99.90;;;;;;5009837;28;20110;-61
2021/12/18 08:47:45;;;;;;;14.48;6.78;;;8.50;99.90;;;;;;4995363;28;20053;-61
2021/12/18 08:50:13;;;;;;;16.60;6.65;;;8.50;99.90;;;;;;4989336;28;20045;-61
2021/12/18 08:52:40;;;;;;;16.75;7.45;;;8.40;99.90;;;;;;5010774;28;20048;-59
2021/12/18 08:55:06;;;;;;;16.50;7.05;;;8.50;99.90;;;;;;5016103;28;20037;-59
2021/12/18 08:57:32;;;;;;;18.38;6.65;;;8.50;99.90;;;;;;5000138;28;20111;-60
2021/12/18 08:59:58;;;;;;;13.85;6.95;;;8.50;99.90;;;;;;5003436;28;20515;-59
2021/12/18 09:02:24;;;;;;;14.18;6.38;;;8.50;99.90;;;;;;5002005;28;20124;-61
2021/12/18 09:04:50;;;;;;;15.07;6.72;;;8.60;99.90;;;;;;4996074;28;20099;-59
2021/12/18 09:07:16;;;;;;;17.10;7.28;;;8.50;99.90;;;;;;5000444;28;20051;-61
2021/12/18 09:09:42;;;;;;;16.88;6.93;;;8.60;99.90;;;;;;5003660;28;20041;-61
2021/12/18 09:12:09;;;;;;;20.95;6.88;;;8.60;99.90;;;;;;5016761;28;20037;-60
2021/12/18 09:14:35;;;;;;;15.05;6.57;;;8.60;99.90;;;;;;5019543;28;20483;-61
2021/12/18 09:17:01;;;;;;;15.85;6.28;;;8.60;99.90;;;;;;5003900;28;20662;-61
2021/12/18 09:19:27;;;;;;;15.50;6.75;;;8.60;99.90;;;;;;5017736;28;20163;-59
2021/12/18 09:21:52;;;;;;;16.92;6.88;;;8.60;99.90;;;;;;5001612;28;20948;-61
2021/12/18 09:24:20;;;;;;;13.52;6.90;;;8.60;99.90;;;;;;5016002;28;20052;-59
2021/12/18 09:26:47;;;;;;;12.25;7.03;;;8.60;99.90;;;;;;4998893;28;20508;-60
2021/12/18 09:29:13;;;;;;;16.08;7.45;;;8.60;99.90;;;;;;4994985;28;20136;-60
2021/12/18 09:31:38;;;;;;;17.73;6.30;;;8.60;99.90;;;;;;5017381;28;20644;-59
2021/12/18 09:34:04;;;;;;;9.30;4.57;;;8.60;99.90;;;;;;5025198;28;20121;-61
2021/12/18 09:36:30;;;;;;;13.38;4.70;;;8.60;99.90;;;;;;5019018;28;20419;-61
2021/12/18 09:38:56;;;;;;;10.35;4.53;;;8.60;99.90;;;;;;5018810;28;20039;-58
2021/12/18 09:41:23;;;;;;;11.60;4.18;;;8.50;99.90;;;;;;5017626;28;20095;-60
2021/12/18 09:43:48;;;;;;;9.90;3.65;;;8.50;99.90;;;;;;5016995;28;20041;-61
2021/12/18 09:46:15;;;;;;;8.32;3.88;;;8.60;99.90;;;;;;5015693;28;20047;-60
2021/12/18 09:48:42;;;;;;;8.18;3.53;;;8.60;99.90;;;;;;5010252;28;20042;-60
2021/12/18 09:51:18;;;;;;;9.90;4.13;;;8.60;99.90;;;;;;4997812;28;20051;-60
2021/12/18 09:53:44;;;;;;;9.07;3.63;;;8.60;99.90;;;;;;5007505;28;20067;-61
2021/12/18 09:56:10;;;;;;;8.85;4.95;;;8.50;99.90;;;;;;5022085;28;20117;-61
2021/12/18 09:58:35;;;;;;;8.38;3.40;;;8.60;99.90;;;;;;4991676;28;20049;-61
2021/12/18 10:01:02;;;;;;;9.68;3.50;;;8.60;99.90;;;;;;4985837;28;20040;-60
2021/12/18 10:03:45;;;;;;;8.85;3.17;;;8.60;99.90;;;;;;5018224;28;20045;-61
2021/12/18 10:06:44;;;;;;;7.43;3.45;;;8.60;99.90;;;;;;5017766;28;20128;-60
2021/12/18 10:09:18;;;;;;;4.03;1.98;;;8.60;99.90;;;;;;5012406;28;20045;-61
2021/12/18 10:11:46;;;;;;;;;;;8.60;99.90;;;;;;5020991;28;20503;-60
2021/12/18 10:14:12;;;;;;;6.88;2.75;;;8.60;99.90;;;;;;5022521;28;20379;-59
2021/12/18 10:16:49;;;;;;;8.23;3.15;;;8.60;99.90;;;;;;4996736;28;20081;-61
2021/12/18 10:19:36;;;;;;;7.25;3.60;;;8.60;99.90;;;;;;4992521;28;20045;-59
2021/12/18 10:22:07;;;;;;;10.98;3.60;;;8.60;99.90;;;;;;5011364;28;20042;-60
2021/12/18 10:24:36;;;;;;;10.07;4.70;;;8.60;99.90;;;;;;5013184;28;20504;-58
2021/12/18 10:27:15;;;;;;;10.93;4.80;;;8.60;99.90;;;;;;4993236;28;20051;-60
2021/12/18 10:29:41;;;;;;;11.52;4.80;;;8.60;99.90;;;;;;5007278;28;20037;-61
2021/12/18 10:32:10;;;;;;;13.38;5.28;;;8.60;99.90;;;;;;5006313;28;20084;-61
2021/12/18 10:34:38;;;;;;;10.73;4.97;;;8.60;99.90;;;;;;4990811;28;20175;-57
2021/12/18 10:37:15;;;;;;;10.23;5.28;;;8.60;99.90;;;;;;5007683;28;20037;-59
2021/12/18 10:39:54;;;;;;;13.30;5.18;;;8.60;99.90;;;;;;5010779;28;20472;-61
2021/12/18 10:42:34;;;;;;;11.88;5.07;;;8.60;99.90;;;;;;4988303;28;20478;-59
2021/12/18 10:45:03;;;;;;;14.23;5.78;;;8.60;99.90;;;;;;4991597;28;20124;-62
2021/12/18 10:48:01;;;;;;;10.07;4.60;;;8.60;99.90;;;;;;5001749;28;21648;-65
2021/12/18 10:50:38;;;;;;;10.40;5.40;;;8.60;99.90;;;;;;4964866;28;20057;-66
2021/12/18 10:53:06;;;;;;;10.10;4.97;;;8.60;99.90;;;;;;5007958;28;20484;-65
2021/12/18 10:55:39;;;;;;;12.80;5.18;;;8.70;99.90;;;;;;4986221;28;20115;-66
2021/12/18 10:58:08;;;;;;;10.25;5.18;;;8.70;99.90;;;;;;4993002;28;20057;-66
2021/12/18 11:00:38;;;;;;;13.23;4.78;;;8.80;99.90;;;;;;5012214;28;20048;-64
2021/12/18 11:03:24;;;;;;;13.20;4.70;;;8.80;99.90;;;;;;5014406;28;20069;-62
2021/12/18 11:06:20;;;;;;;14.95;5.82;;;8.80;99.90;;;;;;5012418;28;20044;-63
2021/12/18 11:09:04;;;;;;;9.75;5.10;;;8.80;99.90;;;;;;5008028;28;20079;-62
2021/12/18 11:14:34;;;;;;;10.65;5.28;;;8.80;99.90;;;;;;5011620;28;20482;-62
2021/12/18 11:17:05;;;;;;;9.55;5.10;;;8.80;99.90;;;;;;4997114;28;20055;-65
2021/12/18 11:19:32;;;;;;;13.45;5.00;;;8.80;99.90;;;;;;5001564;28;20033;-62
2021/12/18 11:22:02;;;;;;;12.68;5.53;;;8.90;99.90;;;;;;5007881;28;20030;-66
2021/12/18 11:24:52;;;;;;;13.73;5.05;;;8.90;99.90;;;;;;5018929;28;20507;-64
2021/12/18 11:27:21;;;;;;;10.60;4.43;;;8.90;99.90;;;;;;4999980;28;20042;-66
2021/12/18 11:30:08;;;;;;;13.93;4.82;;;8.90;99.90;;;;;;5021407;28;20156;-63
2021/12/18 11:32:36;;;;;;;8.88;4.57;;;9.00;99.90;;;;;;5000073;28;20040;-63
2021/12/18 11:35:07;;;;;;;15.63;5.50;;;9.00;99.90;;;;;;5005262;28;20099;-66
2021/12/18 11:37:54;;;;;;;11.55;5.50;;;9.00;99.90;;;;;;4990803;28;20042;-63
2021/12/18 11:40:25;;;;;;;17.85;5.50;;;9.00;99.90;;;;;;4991077;28;20041;-66
2021/12/18 11:42:51;;;;;;;15.18;5.00;;;9.00;99.90;;;;;;4998252;28;20053;-63
2021/12/18 11:45:17;;;;;;;10.65;4.32;;;9.00;99.90;;;;;;5009477;28;20038;-63
2021/12/18 11:47:44;;;;;;;11.95;4.57;;;9.00;99.90;;;;;;4987760;28;20511;-64
2021/12/18 11:50:19;;;;;;;13.10;4.38;;;9.00;99.90;;;;;;4994880;28;20468;-66
2021/12/18 11:52:58;;;;;;;18.58;5.57;;;9.00;99.90;;;;;;4995550;28;20057;-64
2021/12/18 11:55:26;;;;;;;11.82;4.13;;;9.00;99.90;;;;;;4987044;28;20056;-63
2021/12/18 11:57:55;;;;;;;15.57;5.00;;;9.00;99.90;;;;;;5011461;28;20033;-65
2021/12/18 12:00:23;;;;;;;10.75;4.28;;;9.00;99.90;;;;;;4988076;28;20124;-66
2021/12/18 12:02:53;;;;;;;8.75;3.58;;;9.00;99.90;;;;;;4986675;28;20045;-64
2021/12/18 12:05:31;;;;;;;9.98;4.45;;;9.10;99.90;;;;;;5008147;28;20530;-65
2021/12/18 12:08:17;;;;;;;9.88;3.63;;;9.10;99.90;;;;;;5003663;28;20072;-65
2021/12/18 12:11:23;;;;;;;12.93;4.15;;;9.10;99.90;;;;;;5011963;28;20071;-63
2021/12/18 12:14:12;;;;;;;12.50;3.50;;;9.10;99.90;;;;;;4928186;28;20089;-64
2021/12/18 12:16:46;;;;;;;9.07;3.67;;;9.10;99.90;;;;;;4991459;28;20361;-63
2021/12/18 12:19:13;;;;;;;6.75;3.58;;;9.10;99.90;;;;;;4999730;28;20053;-64
2021/12/18 12:21:44;;;;;;;10.13;3.90;;;9.10;99.90;;;;;;5000033;28;20045;-64
2021/12/18 12:24:12;;;;;;;10.20;3.88;;;9.10;99.90;;;;;;4999488;28;20048;-65
2021/12/18 12:26:38;;;;;;;15.38;3.78;;;9.10;99.90;;;;;;5003170;28;20049;-65
2021/12/18 12:29:06;;;;;;;14.20;4.85;;;9.10;99.90;;;;;;4994637;28;20053;-64
2021/12/18 12:31:32;;;;;;;13.88;4.63;;;9.10;99.90;;;;;;4996872;28;20058;-66
2021/12/18 12:34:26;;;;;;;14.40;5.50;;;9.10;99.90;;;;;;5000856;28;20042;-66
2021/12/18 12:36:58;;;;;;;11.40;4.23;;;9.10;99.90;;;;;;4996868;28;20132;-63
2021/12/18 12:39:25;;;;;;;11.68;4.05;;;9.10;99.90;;;;;;4998246;28;20129;-63
2021/12/18 12:41:52;;;;;;;8.77;3.20;;;9.00;99.90;;;;;;4997949;28;20173;-65
2021/12/18 12:44:32;;;;;;;8.55;3.65;;;9.10;99.90;;;;;;5000297;28;20076;-65
2021/12/18 12:47:22;;;;;;;10.43;3.72;;;9.00;99.90;;;;;;5015541;28;20041;-63
2021/12/18 12:49:51;;;;;;;9.65;3.58;;;9.00;99.90;;;;;;4997703;28;20484;-65
2021/12/18 12:52:19;;;;;;;9.07;3.65;;;9.00;99.90;;;;;;5000020;28;20041;-63
2021/12/18 12:55:05;;;;;;;8.93;3.90;;;9.00;99.90;;;;;;5000630;28;20120;-63
2021/12/18 12:57:43;;;;;;;9.52;4.60;;;9.00;99.90;;;;;;5000168;28;20072;-63
2021/12/18 13:00:08;;;;;;;9.25;4.93;;;9.00;99.90;;;;;;5013815;28;20042;-63
2021/12/18 13:02:50;;;;;;;13.18;4.97;;;9.00;99.90;;;;;;5013805;28;20033;-66
2021/12/18 13:05:16;;;;;;;8.40;3.97;;;9.00;99.90;;;;;;5001640;28;20053;-66
2021/12/18 13:07:49;;;;;;;12.55;4.80;;;9.00;99.90;;;;;;5001231;28;20654;-64
2021/12/18 13:10:21;;;;;;;10.63;4.47;;;8.90;99.90;;;;;;4996164;28;20044;-64
2021/12/18 13:12:59;;;;;;;7.00;2.85;;;8.90;99.90;;;;;;5001672;28;20499;-64
2021/12/18 13:15:25;;;;;;;5.80;3.63;;;8.90;99.90;;;;;;4994741;28;20049;-63
2021/12/18 13:18:08;;;;;;;10.10;3.65;;;8.90;99.90;;;;;;4999590;28;20672;-66
2021/12/18 13:20:55;;;;;;;8.40;3.78;;;8.90;99.90;;;;;;4996732;28;20675;-65
2021/12/18 13:23:45;;;;;;;8.80;3.92;;;8.90;99.90;;;;;;5009128;23;20058;-82
2021/12/18 13:26:35;;;;;;;6.45;3.40;;;8.90;99.90;;;;;;4981203;28;20494;-86
2021/12/18 13:29:06;;;;;;;7.00;4.07;;;8.90;99.90;;;;;;4977580;28;20058;-86
2021/12/18 13:31:34;;;;;;;8.50;3.97;;;8.90;99.90;;;;;;4975362;28;20229;-84
2021/12/18 13:34:07;;;;;;;10.68;4.15;;;8.80;99.90;;;;;;4952977;28;20042;-85
2021/12/18 13:36:43;;;;;;;8.20;4.25;;;8.80;99.90;;;;;;4960113;28;20495;-83
2021/12/18 13:39:29;;;;;;;9.25;4.20;;;8.80;99.90;;;;;;4968553;28;20052;-84
2021/12/18 13:42:00;;;;;;;11.27;3.92;;;8.80;99.90;;;;;;4965694;28;20042;-84